createdAt,value
2023-01-04T00:00:01.783Z,8.05
2023-01-04T00:02:30.284Z,10.05
2023-01-04T00:04:58.718Z,16.80
2023-01-04T00:07:27.036Z,10.32
2023-01-04T00:09:55.372Z,8.65
2023-01-04T00:12:23.733Z,7.63
2023-01-04T00:14:53.448Z,7.90
2023-01-04T00:17:21.847Z,9.70
2023-01-04T00:19:50.201Z,12.20
2023-01-04T00:22:18.504Z,14.13
2023-01-04T00:24:47.121Z,11.57
2023-01-04T00:27:15.467Z,7.85
2023-01-04T00:29:43.768Z,8.95
2023-01-04T00:32:13.467Z,7.65
2023-01-04T00:34:41.845Z,9.30
2023-01-04T00:37:10.225Z,8.40
2023-01-04T00:39:38.696Z,8.10
2023-01-04T00:42:07.045Z,8.50
2023-01-04T00:44:35.883Z,8.85
2023-01-04T00:47:05.816Z,9.43
2023-01-04T00:49:35.568Z,9.73
2023-01-04T00:52:03.895Z,10.05
2023-01-04T00:54:32.228Z,7.68
2023-01-04T00:57:01.137Z,8.32
2023-01-04T00:59:29.543Z,9.95
2023-01-04T01:01:58.561Z,10.73
2023-01-04T01:04:27.065Z,6.75
2023-01-04T01:06:56.860Z,7.07
2023-01-04T01:09:25.200Z,8.43
2023-01-04T01:11:54.142Z,9.52
2023-01-04T01:14:23.684Z,11.27
2023-01-04T01:16:55.918Z,7.30
2023-01-04T01:19:25.933Z,8.82
2023-01-04T01:21:54.248Z,7.95
2023-01-04T01:24:23.963Z,6.72
2023-01-04T01:26:52.276Z,6.22
2023-01-04T01:29:20.568Z,8.75
2023-01-04T01:31:49.040Z,10.05
2023-01-04T01:34:17.442Z,7.57
2023-01-04T01:36:45.767Z,8.43
2023-01-04T01:39:14.089Z,8.40
2023-01-04T01:41:43.720Z,9.20
2023-01-04T01:44:26.959Z,8.60
2023-01-04T01:46:55.987Z,13.40
2023-01-04T01:49:26.218Z,8.15
2023-01-04T01:51:55.023Z,9.45
2023-01-04T01:54:26.759Z,13.75
2023-01-04T01:56:57.683Z,10.85
2023-01-04T01:59:26.691Z,14.38
2023-01-04T02:01:55.053Z,15.15
2023-01-04T02:04:23.528Z,12.05
2023-01-04T02:06:53.157Z,14.35
2023-01-04T02:09:22.114Z,15.77
2023-01-04T02:11:50.506Z,15.45
2023-01-04T02:14:30.662Z,13.57
2023-01-04T02:17:06.935Z,11.15
2023-01-04T02:19:49.785Z,14.48
2023-01-04T02:22:33.691Z,11.63
2023-01-04T02:25:12.737Z,13.60
2023-01-04T02:27:46.113Z,12.00
2023-01-04T02:30:27.672Z,12.68
2023-01-04T02:33:02.872Z,11.90
2023-01-04T02:35:34.084Z,14.48
2023-01-04T02:38:07.448Z,15.30
2023-01-04T02:40:40.726Z,15.10
2023-01-04T02:43:30.167Z,15.32
2023-01-04T02:46:01.359Z,15.95
2023-01-04T02:48:55.152Z,13.25
2023-01-04T02:51:28.441Z,15.15
2023-01-04T02:53:58.015Z,13.00
2023-01-04T02:56:36.287Z,14.77
2023-01-04T02:59:10.210Z,16.30
2023-01-04T03:02:01.905Z,14.98
2023-01-04T03:04:57.155Z,16.40
2023-01-04T03:07:27.806Z,14.25
2023-01-04T03:09:58.273Z,16.35
2023-01-04T03:12:33.074Z,15.95
2023-01-04T03:15:03.484Z,17.20
2023-01-04T03:17:34.289Z,15.82
2023-01-04T03:20:04.177Z,15.60
2023-01-04T03:22:53.233Z,18.52
2023-01-04T03:25:43.164Z,15.95
2023-01-04T03:28:30.140Z,16.08
2023-01-04T03:31:18.879Z,18.90
2023-01-04T03:34:05.307Z,14.57
2023-01-04T03:36:39.645Z,15.40
2023-01-04T03:39:30.189Z,16.27
2023-01-04T03:42:19.557Z,15.85
2023-01-04T03:45:11.470Z,14.63
2023-01-04T03:48:00.290Z,14.57
2023-01-04T03:50:30.723Z,15.05
2023-01-04T03:53:00.639Z,14.40
2023-01-04T03:55:30.986Z,13.32
2023-01-04T03:58:00.121Z,12.07
2023-01-04T04:00:29.207Z,13.30
2023-01-04T04:03:07.042Z,11.70
2023-01-04T04:05:53.956Z,12.48
2023-01-04T04:08:29.607Z,12.20
2023-01-04T04:11:18.980Z,12.05
2023-01-04T04:13:47.469Z,11.32
2023-01-04T04:16:15.917Z,13.43
2023-01-04T04:18:44.714Z,12.40
2023-01-04T04:21:12.989Z,13.32
2023-01-04T04:23:42.620Z,12.55
2023-01-04T04:26:10.925Z,15.38
2023-01-04T04:28:39.350Z,12.65
2023-01-04T04:31:07.827Z,13.68
2023-01-04T04:33:36.490Z,9.43
2023-01-04T04:36:05.499Z,9.85
2023-01-04T04:38:33.838Z,11.13
2023-01-04T04:41:24.965Z,10.90
2023-01-04T04:43:53.401Z,12.57
2023-01-04T04:46:21.769Z,12.93
2023-01-04T04:48:50.188Z,11.38
2023-01-04T04:51:18.928Z,11.13
2023-01-04T04:53:47.232Z,8.00
2023-01-04T04:56:17.260Z,8.77
2023-01-04T04:58:45.591Z,11.48
2023-01-04T05:01:14.071Z,9.68
2023-01-04T05:03:42.639Z,10.95
2023-01-04T05:06:10.954Z,9.93
2023-01-04T05:08:39.298Z,11.63
2023-01-04T05:11:08.351Z,11.80
2023-01-04T05:13:37.309Z,9.75
2023-01-04T05:16:06.363Z,10.30
2023-01-04T05:18:34.770Z,11.82
2023-01-04T05:21:03.089Z,11.82
2023-01-04T05:23:31.423Z,11.93
2023-01-04T05:26:01.568Z,9.95
2023-01-04T05:28:29.875Z,9.13
2023-01-04T05:30:58.524Z,8.10
2023-01-04T05:33:28.045Z,8.15
2023-01-04T05:36:00.464Z,9.75
2023-01-04T05:38:33.047Z,13.63
2023-01-04T05:41:24.804Z,11.75
2023-01-04T05:43:53.244Z,9.85
2023-01-04T05:46:23.020Z,11.57
2023-01-04T05:48:51.559Z,8.98
2023-01-04T05:51:19.923Z,9.70
2023-01-04T05:53:48.272Z,9.07
2023-01-04T05:56:16.620Z,10.38
2023-01-04T05:58:44.956Z,8.52
2023-01-04T06:01:13.313Z,10.02
2023-01-04T06:03:43.249Z,8.30
2023-01-04T06:06:11.728Z,10.23
2023-01-04T06:08:40.005Z,8.73
2023-01-04T06:11:08.316Z,11.88
2023-01-04T06:13:36.634Z,9.18
2023-01-04T06:16:04.943Z,10.02
2023-01-04T06:18:33.208Z,12.13
2023-01-04T06:21:03.679Z,9.85
2023-01-04T06:23:31.968Z,12.23
2023-01-04T06:26:00.284Z,12.27
2023-01-04T06:28:28.604Z,16.55
2023-01-04T06:30:57.080Z,12.73
2023-01-04T06:33:25.385Z,13.45
2023-01-04T06:35:57.000Z,12.80
2023-01-04T06:38:26.872Z,13.45
2023-01-04T06:40:55.236Z,13.38
2023-01-04T06:43:23.552Z,13.43
2023-01-04T06:45:52.244Z,11.82
2023-01-04T06:48:20.672Z,15.57
2023-01-04T06:50:48.992Z,14.75
2023-01-04T06:53:17.343Z,13.25
2023-01-04T06:55:47.240Z,15.60
2023-01-04T06:58:15.585Z,19.40
2023-01-04T07:00:43.879Z,14.15
2023-01-04T07:03:16.212Z,16.35
2023-01-04T07:05:44.868Z,13.68
2023-01-04T07:08:13.516Z,14.10
2023-01-04T07:10:42.421Z,14.45
2023-01-04T07:13:15.861Z,13.60
2023-01-04T07:15:48.944Z,12.77
2023-01-04T07:18:27.619Z,14.20
2023-01-04T07:20:56.048Z,13.68
2023-01-04T07:23:24.626Z,14.32
2023-01-04T07:25:53.154Z,13.95
2023-01-04T07:28:40.775Z,14.05
2023-01-04T07:31:09.580Z,14.25
2023-01-04T07:33:38.464Z,13.63
2023-01-04T07:36:07.660Z,14.77
2023-01-04T07:38:37.997Z,12.07
2023-01-04T07:41:10.856Z,17.17
2023-01-04T07:43:49.885Z,15.98
2023-01-04T07:46:29.107Z,11.10
2023-01-04T07:49:21.704Z,13.50
2023-01-04T07:51:56.625Z,12.57
2023-01-04T07:54:25.588Z,14.70
2023-01-04T07:56:54.264Z,13.70
2023-01-04T07:59:27.053Z,12.38
2023-01-04T08:01:57.799Z,14.90
2023-01-04T08:04:34.432Z,13.15
2023-01-04T08:07:03.715Z,13.55
2023-01-04T08:09:32.542Z,12.88
2023-01-04T08:12:04.340Z,13.50
2023-01-04T08:14:34.406Z,11.55
2023-01-04T08:17:03.004Z,11.73
2023-01-04T08:19:31.671Z,12.27
2023-01-04T08:22:00.354Z,12.25
2023-01-04T08:24:28.950Z,12.52
2023-01-04T08:26:57.684Z,14.52
2023-01-04T08:29:32.756Z,14.00
2023-01-04T08:32:13.650Z,12.35
2023-01-04T08:34:42.524Z,11.95
2023-01-04T08:37:11.108Z,12.32
2023-01-04T08:39:44.026Z,10.48
2023-01-04T08:42:24.696Z,12.45
2023-01-04T08:44:59.929Z,13.30
2023-01-04T08:47:30.280Z,9.60
2023-01-04T08:50:00.461Z,12.95
2023-01-04T08:52:32.199Z,10.57
2023-01-04T08:55:00.525Z,8.13
2023-01-04T08:57:28.877Z,10.18
2023-01-04T08:59:57.183Z,8.80
2023-01-04T09:02:29.290Z,9.95
2023-01-04T09:05:04.451Z,10.20
2023-01-04T09:07:33.946Z,10.18
2023-01-04T09:10:02.232Z,10.68
2023-01-04T09:12:30.538Z,11.25
2023-01-04T09:14:58.943Z,8.73
2023-01-04T09:17:28.831Z,8.88
2023-01-04T09:19:57.386Z,8.77
2023-01-04T09:22:27.159Z,8.52
2023-01-04T09:24:55.494Z,6.95
2023-01-04T09:27:23.903Z,9.02
2023-01-04T09:29:52.259Z,8.35
2023-01-04T09:32:21.032Z,6.47
2023-01-04T09:34:49.367Z,7.25
2023-01-04T09:37:17.771Z,8.35
2023-01-04T09:39:48.196Z,6.63
2023-01-04T09:42:18.904Z,6.65
2023-01-04T09:45:23.291Z,7.50
2023-01-04T09:47:41.125Z,6.75
2023-01-04T09:50:13.190Z,9.23
2023-01-04T09:52:44.971Z,8.80
2023-01-04T09:55:39.569Z,7.72
2023-01-04T09:58:10.240Z,6.10
2023-01-04T10:00:58.465Z,9.10
2023-01-04T10:03:46.649Z,8.23
2023-01-04T10:06:16.818Z,8.07
2023-01-04T10:08:49.342Z,6.60
2023-01-04T10:11:40.965Z,8.75
2023-01-04T10:14:23.309Z,8.13
2023-01-04T10:17:12.730Z,6.95
2023-01-04T10:22:47.645Z,6.55
2023-01-04T10:29:47.862Z,5.10
2023-01-04T10:32:54.675Z,4.28
2023-01-04T10:36:03.924Z,4.43
2023-01-04T10:39:05.840Z,7.68
2023-01-04T10:42:15.379Z,4.90
2023-01-04T10:45:42.313Z,14.25
2023-01-04T12:01:44.022Z,4.97
2023-01-04T12:04:18.084Z,5.05
2023-01-04T12:06:52.860Z,4.47
2023-01-04T12:09:21.914Z,6.88
2023-01-04T12:11:52.337Z,5.60
2023-01-04T12:14:25.516Z,6.78
2023-01-04T12:17:06.227Z,6.50
2023-01-04T12:19:35.897Z,10.45
2023-01-04T12:22:05.389Z,5.32
2023-01-04T12:24:34.738Z,6.75
2023-01-04T12:27:04.929Z,6.05
2023-01-04T12:29:35.659Z,5.05
2023-01-04T12:32:25.689Z,5.38
2023-01-04T12:34:58.267Z,4.45
2023-01-04T12:37:49.751Z,4.05
2023-01-04T12:40:37.158Z,6.53
2023-01-04T12:46:56.311Z,5.38
2023-01-04T12:49:43.326Z,3.95
2023-01-04T12:52:43.060Z,3.65
2023-01-04T13:11:30.352Z,5.70
2023-01-04T13:18:38.477Z,5.30
2023-01-04T13:21:19.452Z,5.28
2023-01-04T13:23:52.818Z,3.63
2023-01-04T13:26:41.040Z,4.43
2023-01-04T13:45:21.094Z,4.68
2023-01-04T13:48:52.890Z,4.45
2023-01-04T13:52:43.521Z,3.97
2023-01-04T13:55:13.543Z,4.78
2023-01-04T13:58:37.946Z,5.30
2023-01-04T14:04:49.958Z,3.38
2023-01-04T14:07:45.268Z,4.10
2023-01-04T14:10:19.637Z,5.00
2023-01-04T14:12:57.573Z,4.35
2023-01-04T14:16:06.436Z,3.95
2023-01-04T14:19:04.889Z,4.85
2023-01-04T14:21:58.821Z,3.50
2023-01-04T14:28:01.047Z,4.38
2023-01-04T14:31:04.378Z,3.80
2023-01-04T14:37:44.170Z,5.32
2023-01-04T14:40:24.329Z,3.95
2023-01-04T14:42:52.597Z,3.15
2023-01-04T14:45:23.256Z,3.70
2023-01-04T14:47:53.560Z,3.92
2023-01-04T14:50:23.824Z,3.58
2023-01-04T14:52:52.947Z,3.53
2023-01-04T14:55:24.678Z,3.50
2023-01-04T14:57:53.132Z,3.22
2023-01-04T15:00:21.998Z,3.50
2023-01-04T15:02:52.251Z,4.55
2023-01-04T15:05:23.855Z,5.22
2023-01-04T15:07:55.621Z,4.63
2023-01-04T15:10:26.806Z,3.90
2023-01-04T15:12:55.555Z,5.03
2023-01-04T15:15:23.815Z,3.88
2023-01-04T15:17:52.139Z,4.30
2023-01-04T15:20:20.521Z,3.55
2023-01-04T15:22:48.911Z,3.65
2023-01-04T15:25:17.279Z,3.97
2023-01-04T15:27:47.028Z,2.58
2023-01-04T15:30:15.580Z,2.90
2023-01-04T15:32:44.087Z,2.60
2023-01-04T15:35:16.018Z,3.53
2023-01-04T15:37:44.428Z,2.40
2023-01-04T15:40:13.473Z,2.75
2023-01-04T15:43:00.115Z,3.70
2023-01-04T15:45:30.639Z,2.80
2023-01-04T15:48:03.096Z,5.32
2023-01-04T15:50:31.816Z,2.88
2023-01-04T15:53:00.232Z,3.17
2023-01-04T15:55:34.152Z,2.38
2023-01-04T15:58:04.529Z,2.70
2023-01-04T16:00:38.146Z,3.50
2023-01-04T16:03:09.001Z,2.13
2023-01-04T16:05:40.334Z,3.05
2023-01-04T16:08:08.904Z,1.98
2023-01-04T16:10:37.235Z,3.70
2023-01-04T16:13:08.396Z,2.20
2023-01-04T16:15:39.119Z,3.33
2023-01-04T16:18:07.830Z,1.63
2023-01-04T16:20:36.482Z,2.40
2023-01-04T16:23:05.220Z,3.90
2023-01-04T16:25:33.857Z,2.67
2023-01-04T16:28:02.491Z,2.67
2023-01-04T16:30:34.518Z,1.98
2023-01-04T16:33:04.362Z,1.60
2023-01-04T16:35:33.130Z,1.73
2023-01-04T16:38:01.755Z,5.03
2023-01-04T16:40:30.710Z,1.42
2023-01-04T16:42:59.217Z,1.70
2023-01-04T16:45:27.512Z,1.63
2023-01-04T16:47:56.626Z,1.83
2023-01-04T16:50:26.347Z,2.28
2023-01-04T16:52:54.657Z,1.92
2023-01-04T16:55:24.302Z,3.28
2023-01-04T16:57:52.796Z,3.35
2023-01-04T17:00:21.279Z,2.38
2023-01-04T17:02:49.690Z,1.45
2023-01-04T17:05:18.200Z,2.38
2023-01-04T17:07:47.884Z,5.05
2023-01-04T17:10:16.503Z,2.60
2023-01-04T17:12:48.174Z,3.85
2023-01-04T17:18:12.281Z,3.60
2023-01-04T17:20:41.331Z,4.07
2023-01-04T17:23:11.337Z,3.58
2023-01-04T17:25:39.871Z,10.50
2023-01-04T17:28:08.356Z,4.25
2023-01-04T17:30:39.200Z,15.38
2023-01-04T17:33:07.564Z,3.70
2023-01-04T17:35:37.078Z,2.88
2023-01-04T17:38:05.677Z,3.88
2023-01-04T17:40:35.920Z,5.65
2023-01-04T17:43:04.475Z,6.37
2023-01-04T17:45:33.749Z,18.58
2023-01-04T17:48:02.863Z,3.78
2023-01-04T17:50:31.166Z,3.88
2023-01-04T17:53:00.643Z,6.03
2023-01-04T17:55:28.970Z,6.32
2023-01-04T17:57:58.771Z,2.85
2023-01-04T18:00:27.063Z,3.63
2023-01-04T18:02:55.359Z,3.05
2023-01-04T18:05:23.863Z,2.97
2023-01-04T18:07:52.178Z,9.75
2023-01-04T18:10:33.299Z,2.28
2023-01-04T18:13:10.399Z,1.90
2023-01-04T18:15:43.892Z,2.67
2023-01-04T18:18:17.229Z,3.63
2023-01-04T18:20:49.237Z,2.67
2023-01-04T18:23:25.302Z,3.17
2023-01-04T18:25:57.307Z,2.55
2023-01-04T18:28:32.189Z,33.10
2023-01-04T18:31:15.172Z,5.82
2023-01-04T18:33:48.962Z,3.67
2023-01-04T18:36:18.271Z,3.85
2023-01-04T18:38:51.110Z,2.13
2023-01-04T18:41:19.858Z,3.13
2023-01-04T18:44:05.853Z,5.45
2023-01-04T18:46:41.396Z,3.58
2023-01-04T18:49:09.702Z,4.72
2023-01-04T18:51:38.022Z,4.35
2023-01-04T18:54:06.498Z,8.18
2023-01-04T18:56:34.835Z,3.88
2023-01-04T18:59:09.075Z,2.30
2023-01-04T19:01:42.967Z,3.50
2023-01-04T19:04:13.471Z,2.92
2023-01-04T19:06:43.432Z,3.83
2023-01-04T19:09:18.566Z,3.83
2023-01-04T19:11:48.178Z,3.15
2023-01-04T19:14:23.184Z,3.90
2023-01-04T19:16:53.097Z,5.28
2023-01-04T19:19:22.962Z,2.03
2023-01-04T19:21:51.618Z,5.43
2023-01-04T19:24:20.109Z,3.75
2023-01-04T19:26:48.536Z,2.40
2023-01-04T19:29:16.890Z,1.85
2023-01-04T19:31:46.751Z,3.60
2023-01-04T19:34:15.315Z,2.60
2023-01-04T19:36:43.729Z,1.40
2023-01-04T19:39:12.132Z,3.92
2023-01-04T19:41:40.778Z,3.55
2023-01-04T19:44:13.106Z,2.22
2023-01-04T19:46:42.060Z,3.70
2023-01-04T19:49:15.425Z,2.30
2023-01-04T19:51:46.252Z,3.15
2023-01-04T19:54:18.541Z,3.53
2023-01-04T19:57:10.630Z,2.00
2023-01-04T19:59:42.868Z,2.35
2023-01-04T20:02:19.452Z,1.55
2023-01-04T20:04:50.125Z,2.08
2023-01-04T20:07:36.258Z,8.35
2023-01-04T20:10:10.461Z,3.75
2023-01-04T20:12:42.832Z,15.95
2023-01-04T20:15:13.372Z,7.78
2023-01-04T20:17:42.188Z,2.65
2023-01-04T20:20:12.040Z,2.75
2023-01-04T20:22:42.767Z,2.80
2023-01-04T20:25:11.323Z,12.57
2023-01-04T20:27:39.606Z,3.78
2023-01-04T20:30:08.701Z,3.58
2023-01-04T20:32:37.392Z,3.58
2023-01-04T20:35:06.234Z,4.07
2023-01-04T20:37:35.873Z,2.75
2023-01-04T20:40:04.214Z,6.07
2023-01-04T20:42:50.210Z,7.72
2023-01-04T20:45:18.592Z,3.58
2023-01-04T20:47:46.901Z,5.22
2023-01-04T20:50:15.180Z,4.15
2023-01-04T20:52:44.987Z,4.55
2023-01-04T20:55:17.340Z,4.13
2023-01-04T20:57:46.107Z,3.85
2023-01-04T21:00:15.128Z,3.40
2023-01-04T21:02:43.724Z,3.47
2023-01-04T21:05:12.675Z,3.63
2023-01-04T21:07:40.942Z,2.58
2023-01-04T21:10:10.853Z,8.02
2023-01-04T21:12:43.531Z,4.80
2023-01-04T21:15:13.671Z,4.78
2023-01-04T21:18:03.546Z,3.63
2023-01-04T21:20:42.190Z,3.63
2023-01-04T21:23:10.714Z,3.55
2023-01-04T21:25:42.177Z,2.78
2023-01-04T21:28:11.661Z,2.85
2023-01-04T21:30:41.378Z,2.45
2023-01-04T21:33:10.114Z,3.20
2023-01-04T21:35:39.069Z,1.73
2023-01-04T21:38:07.825Z,1.60
2023-01-04T21:40:36.461Z,1.98
2023-01-04T21:43:06.404Z,3.40
2023-01-04T21:45:36.837Z,1.75
2023-01-04T21:48:10.361Z,2.42
2023-01-04T21:50:41.321Z,3.53
2023-01-04T21:53:09.708Z,8.25
2023-01-04T21:55:38.033Z,12.45
2023-01-04T21:58:08.186Z,13.05
2023-01-04T22:00:37.081Z,12.00
2023-01-04T22:03:05.536Z,5.72
2023-01-04T22:05:34.234Z,23.02
2023-01-04T22:08:03.201Z,16.50
2023-01-04T22:10:32.703Z,8.13
2023-01-04T22:13:02.523Z,8.82
2023-01-04T22:15:32.681Z,12.10
2023-01-04T22:18:01.105Z,9.32
2023-01-04T22:20:29.445Z,14.80
2023-01-04T22:22:58.570Z,8.48
2023-01-04T22:25:26.922Z,5.68
2023-01-04T22:27:55.411Z,3.00
2023-01-04T22:30:23.711Z,16.02
2023-01-04T22:32:53.407Z,3.78
2023-01-04T22:35:22.491Z,3.13
2023-01-04T22:37:50.824Z,2.75
2023-01-04T22:40:19.295Z,4.07
2023-01-04T22:42:47.653Z,5.85
2023-01-04T22:45:16.080Z,4.35
2023-01-04T22:47:44.653Z,4.50
2023-01-04T22:50:14.410Z,7.78
2023-01-04T22:52:49.002Z,4.90
2023-01-04T22:55:19.458Z,5.22
2023-01-04T22:57:47.783Z,3.30
2023-01-04T23:00:17.111Z,7.45
2023-01-04T23:02:45.463Z,4.63
2023-01-04T23:05:15.225Z,4.28
2023-01-04T23:07:43.980Z,7.35
2023-01-04T23:10:12.315Z,4.25
2023-01-04T23:12:40.711Z,3.80
2023-01-04T23:15:09.659Z,3.97
2023-01-04T23:17:37.979Z,5.05
2023-01-04T23:20:10.266Z,4.65
2023-01-04T23:22:40.263Z,5.55
2023-01-04T23:25:09.245Z,4.00
2023-01-04T23:27:37.593Z,4.40
2023-01-04T23:30:06.457Z,4.78
2023-01-04T23:32:34.887Z,3.78
2023-01-04T23:35:03.283Z,4.55
2023-01-04T23:37:34.244Z,4.00
2023-01-04T23:40:04.041Z,4.20
2023-01-04T23:42:32.482Z,4.38
2023-01-04T23:45:00.822Z,3.75
2023-01-04T23:47:29.244Z,4.93
2023-01-04T23:49:57.685Z,3.47
2023-01-04T23:52:26.119Z,4.13
2023-01-04T23:54:54.533Z,3.20
2023-01-04T23:57:24.386Z,3.22
2023-01-04T23:59:52.820Z,4.43
